Time;durP1;ratioP1;P1;durP2;ratioP2;P2;SDS_P1;SDS_P2;PMS_P1;PMS_P2;Temp;Humidity;BMP_temperature;BMP_pressure;BME280_temperature;BME280_humidity;BME280_pressure;Samples;Min_cycle;Max_cycle;Signal;HPM_P1;HPM_P2
2023/05/28 00:01:09;;;;;;;1999.90;999.90;;;10.90;99.90;;;;;;5088913;28;20434;-74
2023/05/28 00:03:36;;;;;;;1999.90;999.90;;;11.10;99.90;;;;;;5084782;28;20430;-74
2023/05/28 00:06:03;;;;;;;1999.90;999.90;;;11.20;99.90;;;;;;5088069;28;20925;-72
2023/05/28 00:08:30;;;;;;;1999.90;999.90;;;11.20;99.90;;;;;;5074978;28;20431;-74
2023/05/28 00:11:00;;;;;;;1999.90;999.90;;;11.30;99.90;;;;;;5082039;28;20917;-74
2023/05/28 00:13:28;;;;;;;1999.90;999.90;;;11.30;99.90;;;;;;5088802;28;20421;-74
2023/05/28 00:15:54;;;;;;;1999.90;999.90;;;11.30;99.90;;;;;;5088782;28;20919;-72
2023/05/28 00:18:21;;;;;;;1999.90;999.90;;;11.20;99.90;;;;;;5076891;28;20432;-74
2023/05/28 00:20:49;;;;;;;1999.90;999.90;;;11.20;99.90;;;;;;5074757;28;20435;-74
2023/05/28 00:23:16;;;;;;;1999.90;999.90;;;11.30;99.90;;;;;;5089379;28;20426;-74
2023/05/28 00:25:43;;;;;;;1999.90;999.90;;;11.30;99.90;;;;;;5091748;28;20425;-74
2023/05/28 00:28:11;;;;;;;1999.90;999.90;;;11.50;99.90;;;;;;5081119;28;20520;-78
2023/05/28 00:30:38;;;;;;;1999.90;999.90;;;11.50;99.90;;;;;;5075333;28;20431;-74
2023/05/28 00:33:04;;;;;;;1999.90;999.90;;;11.50;99.90;;;;;;5082567;28;20438;-74
2023/05/28 00:35:31;;;;;;;1999.90;999.90;;;11.60;99.90;;;;;;5091558;28;20460;-74
2023/05/28 00:37:57;;;;;;;1999.90;999.90;;;11.50;99.90;;;;;;5083687;28;20439;-74
2023/05/28 00:40:24;;;;;;;1999.90;999.90;;;11.50;99.90;;;;;;5077141;28;20480;-74
2023/05/28 00:42:51;;;;;;;1999.90;999.90;;;11.50;99.90;;;;;;5075858;28;20819;-74
2023/05/28 00:45:19;;;;;;;1999.90;999.90;;;11.50;99.90;;;;;;5091560;28;20430;-74
2023/05/28 00:47:46;;;;;;;1999.90;999.90;;;11.40;99.90;;;;;;5086477;28;20430;-74
2023/05/28 00:50:16;;;;;;;1999.90;999.90;;;11.40;99.90;;;;;;5079397;28;20427;-70
2023/05/28 00:52:45;;;;;;;1999.90;999.90;;;11.40;99.90;;;;;;5075791;28;20944;-74
2023/05/28 00:55:15;;;;;;;1999.90;999.90;;;11.40;99.90;;;;;;5087303;28;20454;-74
2023/05/28 00:57:42;;;;;;;1999.90;999.90;;;11.50;99.90;;;;;;5087893;28;20494;-74
2023/05/28 01:00:11;;;;;;;1999.90;999.90;;;11.30;99.90;;;;;;5080367;28;20488;-74
2023/05/28 01:02:39;;;;;;;1999.90;999.90;;;11.10;99.90;;;;;;5078927;28;20492;-74
2023/05/28 01:05:06;;;;;;;1999.90;999.90;;;10.80;99.90;;;;;;5089037;28;20499;-73
2023/05/28 01:07:33;;;;;;;1999.90;999.90;;;10.60;99.90;;;;;;5089579;28;20452;-72
2023/05/28 01:10:00;;;;;;;1999.90;999.90;;;10.50;99.90;;;;;;5082820;28;20532;-73
2023/05/28 01:12:27;;;;;;;1999.90;999.90;;;10.30;99.90;;;;;;5079947;28;20428;-72
2023/05/28 01:14:54;;;;;;;1999.90;999.90;;;10.30;99.90;;;;;;5086668;28;20957;-72
2023/05/28 01:17:21;;;;;;;1999.90;999.90;;;10.30;99.90;;;;;;5089722;28;20491;-73
2023/05/28 01:19:49;;;;;;;1999.90;999.90;;;10.40;99.90;;;;;;5087082;28;20846;-72
2023/05/28 01:22:20;;;;;;;1999.90;999.90;;;10.40;99.90;;;;;;5081137;28;20476;-71
2023/05/28 01:24:49;;;;;;;1999.90;999.90;;;10.60;99.90;;;;;;5086946;28;20461;-75
2023/05/28 01:27:16;;;;;;;1999.90;999.90;;;10.50;99.90;;;;;;5085395;28;20431;-75
2023/05/28 01:29:43;;;;;;;1999.90;999.90;;;10.50;99.90;;;;;;5079455;28;20445;-75
2023/05/28 01:32:10;;;;;;;1999.90;999.90;;;10.40;99.90;;;;;;5084364;28;20428;-75
2023/05/28 01:34:36;;;;;;;1999.90;999.90;;;10.30;99.90;;;;;;5085782;28;20456;-75
2023/05/28 01:37:09;;;;;;;1999.90;999.90;;;10.30;99.90;;;;;;5085666;28;21000;-75
2023/05/28 01:39:41;;;;;;;1999.90;999.90;;;10.30;99.90;;;;;;5080244;28;20504;-75
2023/05/28 01:42:10;;;;;;;1999.90;999.90;;;10.30;99.90;;;;;;5087475;28;20507;-74
2023/05/28 01:44:37;;;;;;;1999.90;999.90;;;10.20;99.90;;;;;;5086666;28;20467;-71
2023/05/28 01:47:05;;;;;;;1999.90;999.90;;;10.10;99.90;;;;;;5085586;28;20431;-73
2023/05/28 01:49:32;;;;;;;1999.90;999.90;;;10.20;99.90;;;;;;5074402;28;20439;-75
2023/05/28 01:51:59;;;;;;;1999.90;999.90;;;10.20;99.90;;;;;;5081579;28;20806;-74
2023/05/28 01:54:25;;;;;;;1999.90;999.90;;;10.20;99.90;;;;;;5087601;28;20454;-73
2023/05/28 01:56:52;;;;;;;1999.90;999.90;;;10.20;99.90;;;;;;5088452;28;20846;-73
2023/05/28 01:59:20;;;;;;;1999.90;999.90;;;10.00;99.90;;;;;;5078325;28;20443;-71
2023/05/28 02:01:47;;;;;;;1999.90;999.90;;;9.70;99.90;;;;;;5074764;28;20455;-76
2023/05/28 02:04:14;;;;;;;1999.90;999.90;;;9.70;99.90;;;;;;5081419;28;20422;-75
2023/05/28 02:06:41;;;;;;;1999.90;999.90;;;9.70;99.90;;;;;;5088285;28;20425;-70
2023/05/28 02:09:08;;;;;;;1999.90;999.90;;;10.00;99.90;;;;;;5078857;28;20438;-73
2023/05/28 02:11:34;;;;;;;1999.90;999.90;;;9.80;99.90;;;;;;5075391;28;20427;-72
2023/05/28 02:14:01;;;;;;;1999.90;999.90;;;9.80;99.90;;;;;;5073839;28;20513;-69
2023/05/28 02:16:29;;;;;;;1999.90;999.90;;;9.80;99.90;;;;;;5088637;28;20437;-72
2023/05/28 02:18:58;;;;;;;1999.90;999.90;;;9.90;99.90;;;;;;5084294;28;20842;-71
2023/05/28 02:21:24;;;;;;;1999.90;999.90;;;9.90;99.90;;;;;;5079768;28;20439;-72
2023/05/28 02:23:51;;;;;;;1999.90;999.90;;;9.70;99.90;;;;;;5076157;28;20437;-73
2023/05/28 02:26:18;;;;;;;1999.90;999.90;;;9.60;99.90;;;;;;5084536;28;20919;-73
2023/05/28 02:28:45;;;;;;;1999.90;999.90;;;9.70;99.90;;;;;;5088920;28;20430;-73
2023/05/28 02:31:12;;;;;;;1999.90;999.90;;;9.90;99.90;;;;;;5082150;28;20434;-73
2023/05/28 02:33:41;;;;;;;1999.90;999.90;;;10.00;99.90;;;;;;5078081;28;20501;-69
2023/05/28 02:36:11;;;;;;;1999.90;999.90;;;10.00;99.90;;;;;;5087190;28;20431;-73
2023/05/28 02:38:38;;;;;;;1999.90;999.90;;;10.10;99.90;;;;;;5088334;28;20461;-72
2023/05/28 02:41:04;;;;;;;1999.90;999.90;;;10.10;99.90;;;;;;5082476;28;20431;-73
2023/05/28 02:43:31;;;;;;;1999.90;999.90;;;10.00;99.90;;;;;;5080862;28;20431;-73
2023/05/28 02:45:58;;;;;;;1999.90;999.90;;;9.90;99.90;;;;;;5086691;28;20446;-73
2023/05/28 02:48:25;;;;;;;1999.90;999.90;;;9.90;99.90;;;;;;5089011;28;20486;-73
2023/05/28 02:50:52;;;;;;;1999.90;999.90;;;9.80;99.90;;;;;;5086551;28;20974;-73
2023/05/28 02:53:21;;;;;;;1999.90;999.90;;;9.70;99.90;;;;;;5082973;28;20457;-76
2023/05/28 02:55:48;;;;;;;1999.90;999.90;;;9.50;99.90;;;;;;5086708;28;20455;-73
2023/05/28 02:58:15;;;;;;;1999.90;999.90;;;9.30;99.90;;;;;;5085142;28;21000;-72
2023/05/28 03:00:42;;;;;;;1999.90;999.90;;;9.00;99.90;;;;;;5077408;28;20455;-75
2023/05/28 03:03:09;;;;;;;1999.90;999.90;;;9.00;99.90;;;;;;5080618;28;20435;-75
2023/05/28 03:05:36;;;;;;;1999.90;999.90;;;9.10;99.90;;;;;;5083551;28;20456;-75
2023/05/28 03:08:05;;;;;;;1999.90;999.90;;;9.30;99.90;;;;;;5085409;28;20434;-73
2023/05/28 03:10:31;;;;;;;1999.90;999.90;;;9.40;99.90;;;;;;5071963;28;20427;-73
2023/05/28 03:12:58;;;;;;;1999.90;999.90;;;9.60;99.90;;;;;;5085385;28;20429;-72
2023/05/28 03:15:26;;;;;;;1999.90;999.90;;;9.40;99.90;;;;;;5082719;28;20535;-72
2023/05/28 03:17:53;;;;;;;1999.90;999.90;;;9.60;99.90;;;;;;5080013;28;20430;-73
2023/05/28 03:20:19;;;;;;;1999.90;999.90;;;9.50;99.90;;;;;;5078882;28;20426;-74
2023/05/28 03:22:47;;;;;;;1999.90;999.90;;;9.70;99.90;;;;;;5087896;28;20426;-74
2023/05/28 03:25:15;;;;;;;1999.90;999.90;;;9.70;99.90;;;;;;5086544;28;20428;-74
2023/05/28 03:27:42;;;;;;;1999.90;999.90;;;9.70;99.90;;;;;;5083075;28;20430;-74
2023/05/28 03:30:10;;;;;;;1999.90;999.90;;;9.70;99.90;;;;;;5079587;28;20514;-73
2023/05/28 03:32:36;;;;;;;1999.90;999.90;;;9.70;99.90;;;;;;5088521;28;20506;-74
2023/05/28 03:35:03;;;;;;;1999.90;999.90;;;9.70;99.90;;;;;;5079530;28;20426;-73
2023/05/28 03:37:30;;;;;;;1999.90;999.90;;;9.70;99.90;;;;;;5086200;28;20434;-73
2023/05/28 03:39:56;;;;;;;1999.90;999.90;;;9.70;99.90;;;;;;5080452;28;20931;-71
2023/05/28 03:42:24;;;;;;;1999.90;999.90;;;9.60;99.90;;;;;;5087681;28;20483;-73
2023/05/28 03:44:51;;;;;;;1999.90;999.90;;;9.40;99.90;;;;;;5080527;28;20463;-73
2023/05/28 03:47:17;;;;;;;1999.90;999.90;;;9.40;99.90;;;;;;5087534;28;20923;-74
2023/05/28 03:49:44;;;;;;;1999.90;999.90;;;9.50;99.90;;;;;;5083354;28;20429;-74
2023/05/28 03:52:11;;;;;;;1999.90;999.90;;;9.60;99.90;;;;;;5088445;28;20483;-73
2023/05/28 03:54:37;;;;;;;1999.90;999.90;;;9.60;99.90;;;;;;5075607;28;20427;-71
2023/05/28 03:57:05;;;;;;;1999.90;999.90;;;9.70;99.90;;;;;;5072705;28;20432;-73
2023/05/28 03:59:33;;;;;;;1999.90;999.90;;;9.50;99.90;;;;;;5085676;28;20429;-73
2023/05/28 04:02:00;;;;;;;1999.90;999.90;;;9.70;99.90;;;;;;5084320;28;20487;-73
2023/05/28 04:04:26;;;;;;;1999.90;999.90;;;9.50;99.90;;;;;;5078939;28;20921;-75
2023/05/28 04:06:53;;;;;;;1999.90;999.90;;;9.60;99.90;;;;;;5073726;28;20427;-71
2023/05/28 04:09:19;;;;;;;1999.90;999.90;;;9.60;99.90;;;;;;5081412;28;20426;-75
2023/05/28 04:11:47;;;;;;;1999.90;999.90;;;9.60;99.90;;;;;;5087557;28;20429;-74
2023/05/28 04:14:13;;;;;;;1999.90;999.90;;;9.80;99.90;;;;;;5080942;28;20423;-73
2023/05/28 04:16:41;;;;;;;1999.90;999.90;;;9.90;99.90;;;;;;5073982;28;20438;-73
2023/05/28 04:19:08;;;;;;;1999.90;999.90;;;10.00;99.90;;;;;;5073761;28;20452;-73
2023/05/28 04:21:35;;;;;;;1999.90;999.90;;;10.10;99.90;;;;;;5086596;28;20455;-73
2023/05/28 04:24:01;;;;;;;1999.90;999.90;;;10.10;99.90;;;;;;5087296;28;20500;-73
2023/05/28 04:26:28;;;;;;;1999.90;999.90;;;10.20;99.90;;;;;;5078357;28;20428;-73
2023/05/28 04:28:54;;;;;;;1999.90;999.90;;;10.40;99.90;;;;;;5074947;28;20427;-73
2023/05/28 04:31:21;;;;;;;1999.90;999.90;;;10.90;99.90;;;;;;5081062;28;20426;-72
2023/05/28 04:33:49;;;;;;;1999.90;999.90;;;11.60;99.90;;;;;;5092223;28;20526;-72
2023/05/28 04:36:16;;;;;;;1999.90;999.90;;;12.30;99.90;;;;;;5082464;28;20510;-70
2023/05/28 04:38:43;;;;;;;1999.90;999.90;;;12.90;99.90;;;;;;5080603;28;20506;-73
2023/05/28 04:41:13;;;;;;;1999.90;999.90;;;13.40;99.90;;;;;;5077258;28;20468;-72
2023/05/28 04:43:39;;;;;;;1999.90;999.90;;;13.10;99.90;;;;;;5091916;28;20476;-72
2023/05/28 04:46:08;;;;;;;1999.90;999.90;;;13.00;99.90;;;;;;5085759;28;20430;-73
2023/05/28 04:48:36;;;;;;;1999.90;999.90;;;13.30;99.90;;;;;;5080165;28;21115;-73
2023/05/28 04:51:06;;;;;;;1999.90;999.90;;;13.80;99.90;;;;;;5084797;28;20537;-75
2023/05/28 04:53:33;;;;;;;1999.90;999.90;;;13.50;99.90;;;;;;5091087;28;20946;-74
2023/05/28 04:56:00;;;;;;;1999.90;999.90;;;13.90;99.90;;;;;;5088161;28;20475;-74
2023/05/28 04:58:26;;;;;;;1999.90;999.90;;;14.10;99.90;;;;;;5081699;28;20578;-73
2023/05/28 05:00:53;;;;;;;1999.90;999.90;;;14.50;99.90;;;;;;5086439;28;20839;-73
2023/05/28 05:03:20;;;;;;;1999.90;999.90;;;15.20;99.90;;;;;;5087411;28;20504;-73
2023/05/28 05:05:47;;;;;;;1999.90;999.90;;;15.10;99.90;;;;;;5079560;28;20504;-74
2023/05/28 05:08:15;;;;;;;1999.90;999.90;;;15.50;99.90;;;;;;5084706;28;20441;-72
2023/05/28 05:10:41;;;;;;;1999.90;999.90;;;15.40;99.90;;;;;;5086591;28;20463;-73
2023/05/28 05:13:08;;;;;;;1999.90;999.90;;;15.00;99.90;;;;;;5091045;28;20788;-74
2023/05/28 05:15:35;;;;;;;1999.90;999.90;;;14.60;99.90;;;;;;5077712;28;20477;-74
2023/05/28 05:18:02;;;;;;;1999.90;999.90;;;15.40;99.90;;;;;;5085187;28;20437;-74
2023/05/28 05:20:29;;;;;;;1999.90;999.90;;;16.00;99.90;;;;;;5085931;28;20434;-73
2023/05/28 05:22:56;;;;;;;1999.90;999.90;;;16.50;99.90;;;;;;5090534;28;20468;-73
2023/05/28 05:25:24;;;;;;;1999.90;999.90;;;16.80;99.90;;;;;;5079912;28;20986;-73
2023/05/28 05:27:52;;;;;;;1999.90;999.90;;;17.30;99.90;;;;;;5078972;28;20947;-74
2023/05/28 05:30:18;;;;;;;1999.90;999.90;;;17.70;99.90;;;;;;5086421;28;20526;-74
2023/05/28 05:32:45;;;;;;;1999.90;999.90;;;17.10;99.90;;;;;;5090243;28;20497;-74
2023/05/28 05:35:12;;;;;;;1999.90;999.90;;;16.60;99.90;;;;;;5082616;28;20492;-74
2023/05/28 05:37:39;;;;;;;1999.90;999.90;;;16.60;99.90;;;;;;5073216;28;20467;-71
2023/05/28 05:40:08;;;;;;;1999.90;999.90;;;16.10;99.90;;;;;;5086329;28;20467;-73
2023/05/28 05:42:36;;;;;;;1999.90;999.90;;;16.50;99.90;;;;;;5082032;28;20436;-74
2023/05/28 05:45:05;;;;;;;1999.90;999.90;;;16.80;99.90;;;;;;5085690;28;20425;-71
2023/05/28 05:47:32;;;;;;;1999.90;999.90;;;17.50;99.90;;;;;;5076514;28;20431;-73
2023/05/28 05:49:59;;;;;;;1999.90;999.90;;;17.60;99.90;;;;;;5073052;28;20431;-73
2023/05/28 05:52:26;;;;;;;1999.90;999.90;;;17.90;99.90;;;;;;5089779;28;20434;-72
2023/05/28 05:54:52;;;;;;;1999.90;999.90;;;18.30;99.90;;;;;;5087134;28;20458;-74
2023/05/28 05:57:19;;;;;;;1999.90;999.90;;;18.60;99.90;;;;;;5078312;28;20783;-74
2023/05/28 05:59:47;;;;;;;1999.90;999.90;;;18.80;99.90;;;;;;5075053;28;20455;-70
2023/05/28 06:02:14;;;;;;;1999.90;999.90;;;19.20;99.90;;;;;;5088174;28;20422;-71
2023/05/28 06:04:40;;;;;;;1999.90;999.90;;;17.80;99.90;;;;;;5087332;28;20834;-74
2023/05/28 06:07:07;;;;;;;1999.90;999.90;;;17.60;99.90;;;;;;5082014;28;20433;-70
2023/05/28 06:09:34;;;;;;;1999.90;999.90;;;18.10;99.90;;;;;;5077082;28;20800;-74
2023/05/28 06:12:01;;;;;;;1999.90;999.90;;;18.60;99.90;;;;;;5081301;28;20937;-75
2023/05/28 06:14:28;;;;;;;1999.90;999.90;;;18.90;99.90;;;;;;5088987;28;20434;-71
2023/05/28 06:16:56;;;;;;;1999.90;999.90;;;19.00;99.90;;;;;;5078855;28;20477;-75
2023/05/28 06:19:23;;;;;;;1999.90;999.90;;;19.10;99.90;;;;;;5078072;28;20439;-75
2023/05/28 06:21:50;;;;;;;1999.90;999.90;;;19.30;99.90;;;;;;5077999;28;20436;-72
2023/05/28 06:24:16;;;;;;;1999.90;999.90;;;19.40;99.90;;;;;;5080691;28;20506;-74
2023/05/28 06:26:43;;;;;;;1999.90;999.90;;;19.50;99.90;;;;;;5085158;28;20467;-74
2023/05/28 06:29:10;;;;;;;1999.90;999.90;;;19.40;99.90;;;;;;5090546;28;20965;-71
2023/05/28 06:31:37;;;;;;;1999.90;999.90;;;19.30;99.90;;;;;;5077326;28;20476;-75
2023/05/28 06:34:05;;;;;;;1999.90;999.90;;;19.40;99.90;;;;;;5078165;28;20492;-75
2023/05/28 06:36:32;;;;;;;1999.90;999.90;;;19.60;99.90;;;;;;5076675;28;20424;-73
2023/05/28 06:38:58;;;;;;;1999.90;999.90;;;19.80;99.90;;;;;;5087199;28;20418;-74
2023/05/28 06:41:25;;;;;;;1999.90;999.90;;;20.10;99.90;;;;;;5084068;28;20414;-73
2023/05/28 06:43:51;;;;;;;1999.90;999.90;;;20.00;99.90;;;;;;5090497;28;20409;-71
2023/05/28 06:46:21;;;;;;;1999.90;999.90;;;20.00;99.90;;;;;;5078821;28;20477;-74
2023/05/28 06:48:47;;;;;;;1999.90;999.90;;;19.70;99.90;;;;;;5084129;28;20447;-74
2023/05/28 06:51:15;;;;;;;1999.90;999.90;;;19.70;99.90;;;;;;5069844;28;20447;-73
2023/05/28 06:53:42;;;;;;;1999.90;999.90;;;19.90;99.90;;;;;;5076484;28;20410;-74
2023/05/28 06:56:09;;;;;;;1999.90;999.90;;;19.90;99.90;;;;;;5089834;28;20466;-75
2023/05/28 06:58:35;;;;;;;1999.90;999.90;;;19.80;99.90;;;;;;5076380;28;20418;-74
2023/05/28 07:01:03;;;;;;;1999.90;999.90;;;19.70;99.90;;;;;;5086935;28;20497;-74
2023/05/28 07:03:29;;;;;;;1999.90;999.90;;;19.60;99.90;;;;;;5090298;28;20426;-75
2023/05/28 07:05:56;;;;;;;1999.90;999.90;;;19.60;99.90;;;;;;5089498;28;20464;-73
2023/05/28 07:08:24;;;;;;;1999.90;999.90;;;19.70;99.90;;;;;;5090056;28;20479;-73
2023/05/28 07:10:51;;;;;;;1999.90;999.90;;;19.90;99.90;;;;;;5090276;28;20910;-71
2023/05/28 07:13:18;;;;;;;1999.90;999.90;;;20.20;99.90;;;;;;5089772;28;20534;-74
2023/05/28 07:15:45;;;;;;;1999.90;999.90;;;20.10;99.60;;;;;;5082945;28;20444;-74
2023/05/28 07:18:11;;;;;;;1999.90;999.90;;;20.20;97.10;;;;;;5087270;28;20911;-75
2023/05/28 07:20:38;;;;;;;1999.90;999.90;;;20.00;98.60;;;;;;5070186;28;20407;-75
2023/05/28 07:23:05;;;;;;;1999.90;999.90;;;20.00;96.20;;;;;;5070468;28;20408;-74
2023/05/28 07:25:33;;;;;;;1999.90;999.90;;;19.90;96.90;;;;;;5078910;28;20908;-75
2023/05/28 07:27:59;;;;;;;1999.90;999.90;;;20.10;96.60;;;;;;5081177;28;20418;-74
2023/05/28 07:30:26;;;;;;;1999.90;999.90;;;20.20;98.20;;;;;;5089363;28;20424;-74
2023/05/28 07:32:53;;;;;;;1999.90;999.90;;;20.40;97.50;;;;;;5090463;28;20417;-74
2023/05/28 07:35:19;;;;;;;1999.90;999.90;;;20.50;96.30;;;;;;5087078;28;20425;-72
2023/05/28 07:37:46;;;;;;;1999.90;999.90;;;20.60;97.10;;;;;;5078948;28;20804;-74
2023/05/28 07:40:14;;;;;;;1999.90;999.90;;;20.70;97.50;;;;;;5081253;28;20463;-74
2023/05/28 07:42:42;;;;;;;1999.90;999.90;;;21.00;95.60;;;;;;5089034;28;20947;-72
2023/05/28 07:45:09;;;;;;;1999.90;999.90;;;20.90;95.10;;;;;;5087635;28;20919;-72
2023/05/28 07:47:36;;;;;;;1999.90;999.90;;;20.80;95.40;;;;;;5081511;28;20421;-75
2023/05/28 07:50:03;;;;;;;1999.90;999.90;;;20.80;95.60;;;;;;5090009;28;20428;-74
2023/05/28 07:52:30;;;;;;;1999.90;999.90;;;20.90;95.50;;;;;;5076793;28;20528;-74
2023/05/28 07:54:58;;;;;;;1999.90;999.90;;;21.00;95.70;;;;;;5077830;28;20420;-74
2023/05/28 07:57:25;;;;;;;1999.90;999.90;;;21.10;96.60;;;;;;5069058;28;20522;-74
2023/05/28 07:59:53;;;;;;;1999.90;999.90;;;21.00;95.90;;;;;;5069709;28;20777;-74
2023/05/28 08:02:19;;;;;;;1999.90;999.90;;;21.30;92.60;;;;;;5077156;28;20426;-74
2023/05/28 08:04:46;;;;;;;1999.90;999.90;;;21.50;92.40;;;;;;5076739;28;20516;-73
2023/05/28 08:07:13;;;;;;;1999.90;999.90;;;21.50;92.40;;;;;;5082810;28;20501;-73
2023/05/28 08:09:41;;;;;;;1999.90;999.90;;;21.70;92.90;;;;;;5079017;28;20426;-74
2023/05/28 08:12:08;;;;;;;1999.90;999.90;;;21.80;93.00;;;;;;5087057;28;20505;-74
2023/05/28 08:14:34;;;;;;;1999.90;999.90;;;21.90;92.30;;;;;;5073812;28;20421;-74
2023/05/28 08:17:02;;;;;;;1999.90;999.90;;;22.00;90.10;;;;;;5089373;28;20421;-73
2023/05/28 08:19:29;;;;;;;1999.90;999.90;;;22.00;90.40;;;;;;5093194;28;20413;-71
2023/05/28 08:21:56;;;;;;;1999.90;999.90;;;22.00;90.60;;;;;;5092611;28;20915;-74
2023/05/28 08:24:22;;;;;;;1999.90;999.90;;;21.90;90.60;;;;;;5084294;28;20469;-74
2023/05/28 08:26:49;;;;;;;1999.90;999.90;;;21.80;90.00;;;;;;5092564;28;20757;-75
2023/05/28 08:29:16;;;;;;;1999.90;999.90;;;21.70;91.30;;;;;;5093261;28;20406;-74
2023/05/28 08:31:42;;;;;;;1999.90;999.90;;;21.90;91.40;;;;;;5092302;28;20430;-71
2023/05/28 08:34:10;;;;;;;1999.90;999.90;;;21.80;92.30;;;;;;5083220;28;20958;-73
2023/05/28 08:36:37;;;;;;;1999.90;999.90;;;22.30;91.70;;;;;;5079489;28;20455;-75
2023/05/28 08:39:04;;;;;;;1999.90;999.90;;;22.10;92.00;;;;;;5072731;28;20820;-73
2023/05/28 08:41:31;;;;;;;1999.90;999.90;;;22.20;90.90;;;;;;5074400;28;20434;-75
2023/05/28 08:43:58;;;;;;;1999.90;999.90;;;22.50;85.80;;;;;;5084206;28;20792;-75
2023/05/28 08:46:25;;;;;;;1999.90;999.90;;;22.50;86.50;;;;;;5092920;28;20460;-69
2023/05/28 08:48:52;;;;;;;1999.90;999.90;;;22.80;86.40;;;;;;5092944;28;20854;-72
2023/05/28 08:51:24;;;;;;;1999.90;999.90;;;22.90;83.10;;;;;;5091826;28;20425;-74
2023/05/28 08:53:52;;;;;;;1999.90;999.90;;;22.70;79.60;;;;;;5081250;28;20458;-72
2023/05/28 08:56:20;;;;;;;1999.90;999.90;;;22.90;77.80;;;;;;5091107;28;20842;-72
2023/05/28 08:58:47;;;;;;;1999.90;999.90;;;23.10;79.60;;;;;;5092915;28;20892;-73
2023/05/28 09:01:14;;;;;;;1999.90;999.90;;;22.80;75.60;;;;;;5092915;28;20463;-73
2023/05/28 09:03:41;;;;;;;1999.90;999.90;;;22.90;74.10;;;;;;5083932;28;20409;-73
2023/05/28 09:06:08;;;;;;;1999.90;999.90;;;23.00;74.00;;;;;;5092721;28;20417;-72
2023/05/28 09:08:37;;;;;;;1999.90;999.90;;;23.20;72.30;;;;;;5092434;28;20413;-74
2023/05/28 09:11:11;;;;;;;1999.90;999.90;;;23.30;72.90;;;;;;5092300;28;20487;-74
2023/05/28 09:13:41;;;;;;;1999.90;999.90;;;23.20;73.20;;;;;;5083403;28;20434;-74
2023/05/28 09:16:08;;;;;;;1999.90;999.90;;;23.30;72.90;;;;;;5091824;28;20769;-73
2023/05/28 09:18:35;;;;;;;1999.90;999.90;;;23.40;73.00;;;;;;5090801;28;20414;-74
2023/05/28 09:21:08;;;;;;;1999.90;999.90;;;23.20;75.00;;;;;;5083749;28;20414;-74
2023/05/28 09:23:35;;;;;;;1999.90;999.90;;;23.20;76.10;;;;;;5072498;28;20414;-74
2023/05/28 09:26:02;;;;;;;1999.90;999.90;;;23.30;73.50;;;;;;5072352;28;20408;-74
2023/05/28 09:28:29;;;;;;;1999.90;999.90;;;23.40;73.40;;;;;;5073761;28;20501;-74
2023/05/28 09:31:04;;;;;;;1999.90;999.90;;;23.30;74.50;;;;;;5089332;28;20980;-74
2023/05/28 09:33:30;;;;;;;1999.90;999.90;;;23.60;72.30;;;;;;5088656;28;20419;-72
2023/05/28 09:36:01;;;;;;;1999.90;999.90;;;23.70;71.70;;;;;;5071866;28;20878;-74
2023/05/28 09:38:37;;;;;;;1999.90;999.90;;;23.80;71.40;;;;;;5071650;28;20960;-74
2023/05/28 09:41:05;;;;;;;1999.90;999.90;;;23.80;72.50;;;;;;5079600;28;20468;-74
2023/05/28 09:43:32;;;;;;;1999.90;999.90;;;23.70;72.10;;;;;;5091535;28;20410;-74
2023/05/28 09:46:08;;;;;;;1999.90;999.90;;;23.30;73.20;;;;;;5092190;28;20467;-74
2023/05/28 09:48:35;;;;;;;1999.90;999.90;;;23.10;73.10;;;;;;5090659;28;20406;-74
2023/05/28 09:51:05;;;;;;;1999.90;999.90;;;23.10;73.10;;;;;;5083355;28;20418;-74
2023/05/28 09:53:33;;;;;;;1999.90;999.90;;;22.90;73.20;;;;;;5091644;28;20459;-76
2023/05/28 09:56:00;;;;;;;1999.90;999.90;;;23.20;74.30;;;;;;5088616;28;20437;-73
2023/05/28 09:58:34;;;;;;;1999.90;999.90;;;23.40;73.80;;;;;;5082304;28;20920;-72
2023/05/28 10:01:04;;;;;;;1999.90;999.90;;;23.80;72.00;;;;;;5071171;28;20416;-74
2023/05/28 10:03:37;;;;;;;1999.90;999.90;;;24.00;70.80;;;;;;5091273;28;20410;-74
2023/05/28 10:06:10;;;;;;;1999.90;999.90;;;22.70;70.40;;;;;;5091758;28;20830;-75
2023/05/28 10:08:39;;;;;;;1999.90;999.90;;;22.70;72.30;;;;;;5081183;28;20484;-73
2023/05/28 10:11:10;;;;;;;1999.90;999.90;;;23.10;74.40;;;;;;5087684;28;20426;-75
2023/05/28 10:13:38;;;;;;;1999.90;999.90;;;23.50;72.90;;;;;;5071044;28;20433;-74
2023/05/28 10:16:05;;;;;;;1999.90;999.90;;;23.80;74.30;;;;;;5071130;28;20465;-75
2023/05/28 10:18:32;;;;;;;1999.90;999.90;;;23.90;69.60;;;;;;5070806;28;20461;-72
2023/05/28 10:21:01;;;;;;;1999.90;999.90;;;24.20;69.00;;;;;;5081528;28;21291;-72
2023/05/28 10:23:29;;;;;;;1999.90;999.90;;;24.50;66.70;;;;;;5091923;28;20445;-72
2023/05/28 10:25:56;;;;;;;1999.90;999.90;;;24.80;68.00;;;;;;5090870;28;20471;-72
2023/05/28 10:28:22;;;;;;;1999.90;999.90;;;24.70;65.50;;;;;;5089104;28;20414;-74
2023/05/28 10:31:04;;;;;;;1999.90;999.90;;;24.60;67.80;;;;;;5087972;28;20855;-75
2023/05/28 10:33:31;;;;;;;1999.90;999.90;;;24.30;68.40;;;;;;5082391;28;20419;-75
2023/05/28 10:36:00;;;;;;;1999.90;999.90;;;24.20;68.00;;;;;;5091179;28;20463;-71
2023/05/28 10:41:01;;;;;;;1999.90;999.90;;;24.20;68.50;;;;;;4925972;28;20429;-74
2023/05/28 10:43:41;;;;;;;1999.90;999.90;;;24.00;69.50;;;;;;4930362;29;20435;-75
2023/05/28 10:46:11;;;;;;;1999.90;999.90;;;24.10;70.70;;;;;;4929640;28;20516;-75
2023/05/28 10:48:39;;;;;;;1999.90;999.90;;;24.10;71.60;;;;;;4929276;29;20470;-75
2023/05/28 10:51:06;;;;;;;1999.90;999.90;;;24.10;69.60;;;;;;4929042;29;20444;-75
2023/05/28 10:53:33;;;;;;;1999.90;999.90;;;24.10;71.80;;;;;;4930458;28;20431;-71
2023/05/28 10:56:01;;;;;;;1999.90;999.90;;;24.20;72.40;;;;;;4930445;29;20439;-74
2023/05/28 10:58:33;;;;;;;1999.90;999.90;;;24.40;71.60;;;;;;4930968;28;21007;-75
2023/05/28 11:01:19;;;;;;;1999.90;999.90;;;24.20;71.60;;;;;;4925559;28;20493;-73
2023/05/28 11:03:53;;;;;;;1999.90;999.90;;;24.30;70.50;;;;;;4920933;29;20926;-75
2023/05/28 11:06:20;;;;;;;1999.90;999.90;;;24.30;72.10;;;;;;4931904;29;21021;-74
2023/05/28 11:08:49;;;;;;;1999.90;999.90;;;24.20;69.80;;;;;;4936628;28;20445;-73
2023/05/28 11:11:18;;;;;;;1999.90;999.90;;;24.50;70.40;;;;;;4932348;29;20463;-74
2023/05/28 11:13:46;;;;;;;1999.90;999.90;;;24.50;67.90;;;;;;4925812;29;20437;-73
2023/05/28 11:16:15;;;;;;;1999.90;999.90;;;24.80;66.30;;;;;;4930180;29;20455;-75
2023/05/28 11:19:04;;;;;;;1999.90;999.90;;;24.70;69.00;;;;;;4928716;29;20502;-73
2023/05/28 11:21:32;;;;;;;1999.90;999.90;;;24.40;68.90;;;;;;4925866;28;20503;-75
2023/05/28 11:24:00;;;;;;;1999.90;999.90;;;24.70;71.00;;;;;;4931383;29;20494;-74
2023/05/28 11:26:27;;;;;;;1999.90;999.90;;;24.90;72.00;;;;;;4919332;29;20447;-73
2023/05/28 11:28:54;;;;;;;1999.90;999.90;;;24.90;70.60;;;;;;4922391;29;20475;-74
2023/05/28 11:31:21;;;;;;;1999.90;999.90;;;25.10;68.80;;;;;;4930035;29;20517;-75
2023/05/28 11:33:49;;;;;;;1999.90;999.90;;;24.80;69.30;;;;;;4933239;29;20477;-75
2023/05/28 11:36:19;;;;;;;1999.90;999.90;;;24.60;68.20;;;;;;4930891;29;20447;-73
2023/05/28 11:38:46;;;;;;;1999.90;999.90;;;24.90;69.00;;;;;;4928273;29;20830;-78
2023/05/28 11:41:12;;;;;;;1999.90;999.90;;;24.80;68.60;;;;;;4940739;29;20423;-76
2023/05/28 11:43:39;;;;;;;1999.90;999.90;;;24.40;66.90;;;;;;4952344;29;20479;-74
2023/05/28 11:46:06;;;;;;;1999.90;999.90;;;24.40;69.50;;;;;;4953000;29;20418;-78
2023/05/28 11:48:38;;;;;;;1999.90;999.90;;;24.70;68.50;;;;;;4939354;29;20439;-75
2023/05/28 11:51:06;;;;;;;1999.90;999.90;;;24.80;70.00;;;;;;4933222;29;20432;-75
2023/05/28 11:53:40;;;;;;;1999.90;999.90;;;24.70;67.60;;;;;;4933540;29;20431;-74
2023/05/28 11:56:09;;;;;;;1999.90;999.90;;;25.10;69.10;;;;;;4933641;29;20424;-72
2023/05/28 11:58:37;;;;;;;1999.90;999.90;;;25.10;68.30;;;;;;4933241;29;20525;-74
2023/05/28 12:01:04;;;;;;;1999.90;999.90;;;25.20;66.70;;;;;;4932237;29;20475;-73
2023/05/28 12:03:30;;;;;;;1999.90;999.90;;;25.40;66.20;;;;;;4933209;29;21035;-74
2023/05/28 12:05:57;;;;;;;1999.90;999.90;;;25.40;65.50;;;;;;4933520;29;20420;-74